Пилотам вертолетов

Aviation Digital Data Service (ADDS)

Output produced by METARs form (2242 UTC 13 December 2018)
found at http://aviationweather.gov/metar/data/
 
METAR text: UUWW 132230Z 08005MPS 9999 -SN BKN012 M02/M05 Q1024 R06/550242 NOSIG
Conditions at: UUWW (MOSCOW/VNUKOVO , RU) observed 2230 UTC 13 December 2018
Temperature: -2.0°C (28°F)
Dewpoint: -5.0°C (23°F) [RH = 80%]
Pressure (altimeter): 30.24 inches Hg (1024.0 mb)
Winds: from the E (80 degrees) at 12 MPH (10 knots; 5.1 m/s)
Visibility: 6 or more miles (10+ km)
Ceiling: 1200 feet AGL
Clouds: broken clouds at 1200 feet AGL
Weather: -SN  (light snow)
Forecast for: UUWW (MOSCOW/VNUKOVO , RU)
Text: TAF UUWW 131958Z 1321/1421 06005MPS 5000 -SN OVC011 TXM02/1321Z TNM05/1418Z
Forecast period: 2100 UTC 13 December 2018 to 2100 UTC 14 December 2018
Forecast type: FROM: standard forecast or significant change
Winds: from the ENE (60 degrees) at 12 MPH (10 knots; 5.1 m/s)
Visibility: 3 miles (5 km)
Ceiling: 1100 feet AGL
Clouds: overcast cloud deck at 1100 feet AGL
Weather: -SN  (light snow)
Text: TEMPO 1321/1409 2100 -SHSN SCT003 BKN012CB
Forecast period: 2100 UTC 13 December 2018 to 0900 UTC 14 December 2018
Forecast type: TEMPORARY: The following changes expected for less than half the time period
Visibility: 1.30 miles (2.09 km)
Ceiling: 1200 feet AGL
Clouds: scattered clouds at 300 feet AGL
broken clouds at 1200 feet AGL
Weather: -SHSN  (light snow showers)
METAR text: UUEE 132230Z 05005MPS 8000 -SN OVC009 M02/M03 Q1025 R06C/590330 NOSIG
Conditions at: UUEE (MOSCOW/SHEREMET', RU) observed 2230 UTC 13 December 2018
Temperature: -2.0°C (28°F)
Dewpoint: -3.0°C (27°F) [RH = 93%]
Pressure (altimeter): 30.27 inches Hg (1025.0 mb)
Winds: from the NE (50 degrees) at 12 MPH (10 knots; 5.1 m/s)
Visibility: 5 miles ( 8 km)
Ceiling: 900 feet AGL
Clouds: overcast cloud deck at 900 feet AGL
Weather: -SN  (light snow)
Forecast for: UUEE (MOSCOW/SHEREMET', RU)
Text: TAF UUEE 131949Z 1321/1421 05006MPS 6000 -SN OVC011 TXM02/1321Z TNM04/1400Z
Forecast period: 2100 UTC 13 December 2018 to 2100 UTC 14 December 2018
Forecast type: FROM: standard forecast or significant change
Winds: from the NE (50 degrees) at 14 MPH (12 knots; 6.2 m/s)
Visibility: 4 miles (6 km)
Ceiling: 1100 feet AGL
Clouds: overcast cloud deck at 1100 feet AGL
Weather: -SN  (light snow)
Text: TEMPO 1321/1415 3100 -SN OVC006
Forecast period: 2100 UTC 13 December 2018 to 1500 UTC 14 December 2018
Forecast type: TEMPORARY: The following changes expected for less than half the time period
Visibility: 1.93 miles (3.11 km)
Ceiling: 600 feet AGL
Clouds: overcast cloud deck at 600 feet AGL
Weather: -SN  (light snow)
METAR text: UUDD 132230Z 06003MPS 9999 OVC008 M03/M05 Q1024 R32L/550293 NOSIG
Conditions at: UUDD (MOSCOW/DOMODEDOV, RU) observed 2230 UTC 13 December 2018
Temperature: -3.0°C (27°F)
Dewpoint: -5.0°C (23°F) [RH = 86%]
Pressure (altimeter): 30.24 inches Hg (1024.0 mb)
Winds: from the ENE (60 degrees) at 7 MPH (6 knots; 3.1 m/s)
Visibility: 6 or more miles (10+ km)
Ceiling: 800 feet AGL
Clouds: overcast cloud deck at 800 feet AGL
Weather: no significant weather observed at this time
Forecast for: UUDD (MOSCOW/DOMODEDOV, RU)
Text: TAF UUDD 131955Z 1321/1503 05005MPS 6000 BKN011 TXM02/1321Z TNM04/1405Z
Forecast period: 2100 UTC 13 December 2018 to 0300 UTC 15 December 2018
Forecast type: FROM: standard forecast or significant change
Winds: from the NE (50 degrees) at 12 MPH (10 knots; 5.1 m/s)
Visibility: 4 miles (6 km)
Ceiling: 1100 feet AGL
Clouds: broken clouds at 1100 feet AGL
Weather: no significant weather forecast for this period
Text: TEMPO 1321/1413 3100 -SN BR FEW005 OVC011
Forecast period: 2100 UTC 13 December 2018 to 1300 UTC 14 December 2018
Forecast type: TEMPORARY: The following changes expected for less than half the time period
Visibility: 1.93 miles (3.11 km)
Ceiling: 1100 feet AGL
Clouds: few clouds at 500 feet AGL
overcast cloud deck at 1100 feet AGL
Weather: -SN BR  (light snow, mist)
Text: PROB40
Forecast period: 2100 UTC 13 December 2018 to 1300 UTC 14 December 2018
Forecast type: TEMPORARY: The following changes expected for less than half the time period
Visibility: missing
Ceiling: 500 feet AGL
Clouds: overcast cloud deck at 500 feet AGL
Weather: -FZDZ  (light freezing drizzle)